sensor_id;sensor_type;location;lat;lon;timestamp;pressure;altitude;pressure_sealevel;temperature
19948;BMP180;10135;50.702;7.276;2022-11-04T06:31:06;98348.00;;;12.90
19948;BMP180;10135;50.702;7.276;2022-11-04T06:33:07;98351.00;;;12.90
19948;BMP180;10135;50.702;7.276;2022-11-04T06:35:08;98349.00;;;12.80
19948;BMP180;10135;50.702;7.276;2022-11-04T06:37:09;98351.00;;;12.80
19948;BMP180;10135;50.702;7.276;2022-11-04T06:39:10;98348.00;;;12.80
19948;BMP180;10135;50.702;7.276;2022-11-04T06:41:15;98351.00;;;12.80
19948;BMP180;10135;50.702;7.276;2022-11-04T06:43:16;98347.00;;;12.80
19948;BMP180;10135;50.702;7.276;2022-11-04T06:45:16;98353.00;;;12.80
19948;BMP180;10135;50.702;7.276;2022-11-04T06:47:17;98351.00;;;12.90
19948;BMP180;10135;50.702;7.276;2022-11-04T06:49:20;98349.00;;;12.90
19948;BMP180;10135;50.702;7.276;2022-11-04T06:56:49;98365.00;;;12.90
19948;BMP180;10135;50.702;7.276;2022-11-04T06:59:24;98369.00;;;12.90
19948;BMP180;10135;50.702;7.276;2022-11-04T07:01:28;98373.00;;;12.90
19948;BMP180;10135;50.702;7.276;2022-11-04T07:03:29;98379.00;;;12.80
19948;BMP180;10135;50.702;7.276;2022-11-04T07:05:32;98378.00;;;12.80
19948;BMP180;10135;50.702;7.276;2022-11-04T07:07:33;98395.00;;;12.80
19948;BMP180;10135;50.702;7.276;2022-11-04T07:09:34;98401.00;;;12.80
19948;BMP180;10135;50.702;7.276;2022-11-04T07:11:34;98394.00;;;12.90
19948;BMP180;10135;50.702;7.276;2022-11-04T07:13:35;98396.00;;;12.90
19948;BMP180;10135;50.702;7.276;2022-11-04T07:15:38;98394.00;;;12.90
19948;BMP180;10135;50.702;7.276;2022-11-04T07:17:39;98390.00;;;13.00
19948;BMP180;10135;50.702;7.276;2022-11-04T07:19:39;98398.00;;;13.00
19948;BMP180;10135;50.702;7.276;2022-11-04T07:21:40;98401.00;;;13.10
19948;BMP180;10135;50.702;7.276;2022-11-04T07:23:41;98401.00;;;13.10
19948;BMP180;10135;50.702;7.276;2022-11-04T07:25:41;98403.00;;;13.20
19948;BMP180;10135;50.702;7.276;2022-11-04T07:27:42;98406.00;;;13.20
19948;BMP180;10135;50.702;7.276;2022-11-04T07:29:43;98410.00;;;13.30
19948;BMP180;10135;50.702;7.276;2022-11-04T07:31:43;98413.00;;;13.30
19948;BMP180;10135;50.702;7.276;2022-11-04T07:33:44;98416.00;;;13.40
19948;BMP180;10135;50.702;7.276;2022-11-04T07:35:49;98415.00;;;13.40
19948;BMP180;10135;50.702;7.276;2022-11-04T07:37:50;98416.00;;;13.50
19948;BMP180;10135;50.702;7.276;2022-11-04T07:39:51;98415.00;;;13.50
19948;BMP180;10135;50.702;7.276;2022-11-04T07:41:51;98411.00;;;13.50
19948;BMP180;10135;50.702;7.276;2022-11-04T07:43:52;98409.00;;;13.60
19948;BMP180;10135;50.702;7.276;2022-11-04T07:46:09;98402.00;;;13.60
19948;BMP180;10135;50.702;7.276;2022-11-04T07:48:10;98406.00;;;13.70
19948;BMP180;10135;50.702;7.276;2022-11-04T07:50:12;98412.00;;;13.70
19948;BMP180;10135;50.702;7.276;2022-11-04T07:52:12;98413.00;;;13.70
19948;BMP180;10135;50.702;7.276;2022-11-04T07:54:13;98406.00;;;13.80
19948;BMP180;10135;50.702;7.276;2022-11-04T07:56:14;98419.00;;;13.80
19948;BMP180;10135;50.702;7.276;2022-11-04T07:58:16;98412.00;;;13.90
19948;BMP180;10135;50.702;7.276;2022-11-04T08:00:17;98416.00;;;13.90
19948;BMP180;10135;50.702;7.276;2022-11-04T08:02:18;98411.00;;;14.00
19948;BMP180;10135;50.702;7.276;2022-11-04T08:04:19;98408.00;;;14.00
19948;BMP180;10135;50.702;7.276;2022-11-04T08:06:21;98415.00;;;14.10
19948;BMP180;10135;50.702;7.276;2022-11-04T08:08:21;98415.00;;;14.10
19948;BMP180;10135;50.702;7.276;2022-11-04T08:10:22;98411.00;;;14.20
19948;BMP180;10135;50.702;7.276;2022-11-04T08:12:23;98418.00;;;14.20
19948;BMP180;10135;50.702;7.276;2022-11-04T08:14:23;98424.00;;;14.30
19948;BMP180;10135;50.702;7.276;2022-11-04T08:16:25;98425.00;;;14.40
19948;BMP180;10135;50.702;7.276;2022-11-04T08:18:25;98431.00;;;14.40
19948;BMP180;10135;50.702;7.276;2022-11-04T08:20:26;98423.00;;;14.50
19948;BMP180;10135;50.702;7.276;2022-11-04T08:22:29;98433.00;;;14.50
19948;BMP180;10135;50.702;7.276;2022-11-04T08:24:30;98434.00;;;14.50
19948;BMP180;10135;50.702;7.276;2022-11-04T08:26:30;98435.00;;;14.60
19948;BMP180;10135;50.702;7.276;2022-11-04T08:28:31;98444.00;;;14.60
19948;BMP180;10135;50.702;7.276;2022-11-04T08:30:32;98442.00;;;14.70
19948;BMP180;10135;50.702;7.276;2022-11-04T08:32:33;98453.00;;;14.70
19948;BMP180;10135;50.702;7.276;2022-11-04T08:34:34;98456.00;;;14.70
19948;BMP180;10135;50.702;7.276;2022-11-04T08:36:38;98454.00;;;14.80
19948;BMP180;10135;50.702;7.276;2022-11-04T08:38:40;98463.00;;;14.80
19948;BMP180;10135;50.702;7.276;2022-11-04T08:40:41;98462.00;;;14.80
19948;BMP180;10135;50.702;7.276;2022-11-04T08:42:42;98461.00;;;14.90
19948;BMP180;10135;50.702;7.276;2022-11-04T08:44:42;98459.00;;;14.90
19948;BMP180;10135;50.702;7.276;2022-11-04T08:46:45;98457.00;;;14.90
19948;BMP180;10135;50.702;7.276;2022-11-04T08:48:46;98455.00;;;15.00
19948;BMP180;10135;50.702;7.276;2022-11-04T08:50:51;98451.00;;;15.00
19948;BMP180;10135;50.702;7.276;2022-11-04T08:52:53;98443.00;;;15.00
19948;BMP180;10135;50.702;7.276;2022-11-04T08:54:54;98449.00;;;15.00
19948;BMP180;10135;50.702;7.276;2022-11-04T08:56:57;98459.00;;;15.00
19948;BMP180;10135;50.702;7.276;2022-11-04T08:58:59;98448.00;;;15.00
19948;BMP180;10135;50.702;7.276;2022-11-04T09:04:59;98453.00;;;15.00
19948;BMP180;10135;50.702;7.276;2022-11-04T09:11:07;98447.00;;;15.00
19948;BMP180;10135;50.702;7.276;2022-11-04T09:16:58;98438.00;;;15.10
19948;BMP180;10135;50.702;7.276;2022-11-04T09:37:48;98429.00;;;15.70
19948;BMP180;10135;50.702;7.276;2022-11-04T09:40:25;98425.00;;;15.70
19948;BMP180;10135;50.702;7.276;2022-11-04T10:04:36;98447.00;;;16.40
19948;BMP180;10135;50.702;7.276;2022-11-04T10:09:22;98458.00;;;16.50
19948;BMP180;10135;50.702;7.276;2022-11-04T10:14:24;98462.00;;;16.60
19948;BMP180;10135;50.702;7.276;2022-11-04T10:23:45;98455.00;;;16.60
19948;BMP180;10135;50.702;7.276;2022-11-04T10:26:00;98462.00;;;16.60
19948;BMP180;10135;50.702;7.276;2022-11-04T10:28:08;98464.00;;;16.60
19948;BMP180;10135;50.702;7.276;2022-11-04T10:49:52;98470.00;;;16.60
19948;BMP180;10135;50.702;7.276;2022-11-04T10:52:14;98481.00;;;16.70
19948;BMP180;10135;50.702;7.276;2022-11-04T10:54:30;98478.00;;;16.70
19948;BMP180;10135;50.702;7.276;2022-11-04T10:56:53;98480.00;;;16.70
19948;BMP180;10135;50.702;7.276;2022-11-04T10:59:14;98477.00;;;16.70
19948;BMP180;10135;50.702;7.276;2022-11-04T11:01:40;98484.00;;;16.70
19948;BMP180;10135;50.702;7.276;2022-11-04T11:03:56;98491.00;;;16.80
19948;BMP180;10135;50.702;7.276;2022-11-04T11:06:35;98499.00;;;16.80
19948;BMP180;10135;50.702;7.276;2022-11-04T11:08:36;98497.00;;;16.80
19948;BMP180;10135;50.702;7.276;2022-11-04T11:10:50;98495.00;;;16.80
19948;BMP180;10135;50.702;7.276;2022-11-04T11:12:58;98500.00;;;16.80
19948;BMP180;10135;50.702;7.276;2022-11-04T11:15:32;98496.00;;;16.90
19948;BMP180;10135;50.702;7.276;2022-11-04T11:17:36;98500.00;;;16.90
19948;BMP180;10135;50.702;7.276;2022-11-04T11:32:34;98505.00;;;17.00
19948;BMP180;10135;50.702;7.276;2022-11-04T11:34:48;98504.00;;;17.00
19948;BMP180;10135;50.702;7.276;2022-11-04T11:51:36;98495.00;;;17.20
19948;BMP180;10135;50.702;7.276;2022-11-04T11:56:45;98489.00;;;17.40
19948;BMP180;10135;50.702;7.276;2022-11-04T11:58:55;98483.00;;;17.50
19948;BMP180;10135;50.702;7.276;2022-11-04T12:04:05;98492.00;;;17.70
19948;BMP180;10135;50.702;7.276;2022-11-04T12:08:33;98495.00;;;17.80
19948;BMP180;10135;50.702;7.276;2022-11-04T12:10:52;98501.00;;;17.80
19948;BMP180;10135;50.702;7.276;2022-11-04T12:13:08;98493.00;;;17.80
19948;BMP180;10135;50.702;7.276;2022-11-04T12:21:01;98503.00;;;17.80
19948;BMP180;10135;50.702;7.276;2022-11-04T12:26:16;98504.00;;;17.90
19948;BMP180;10135;50.702;7.276;2022-11-04T12:28:50;98509.00;;;17.80
19948;BMP180;10135;50.702;7.276;2022-11-04T12:30:57;98511.00;;;17.80
19948;BMP180;10135;50.702;7.276;2022-11-04T12:40:52;98514.00;;;17.60
19948;BMP180;10135;50.702;7.276;2022-11-04T12:47:44;98523.00;;;17.60
19948;BMP180;10135;50.702;7.276;2022-11-04T12:53:06;98528.00;;;17.50
19948;BMP180;10135;50.702;7.276;2022-11-04T12:55:41;98525.00;;;17.50
19948;BMP180;10135;50.702;7.276;2022-11-04T13:00:13;98526.00;;;17.40
19948;BMP180;10135;50.702;7.276;2022-11-04T13:02:39;98535.00;;;17.40
19948;BMP180;10135;50.702;7.276;2022-11-04T13:04:53;98536.00;;;17.40
19948;BMP180;10135;50.702;7.276;2022-11-04T13:07:05;98534.00;;;17.30
19948;BMP180;10135;50.702;7.276;2022-11-04T13:09:19;98531.00;;;17.30
19948;BMP180;10135;50.702;7.276;2022-11-04T13:14:22;98536.00;;;17.30
19948;BMP180;10135;50.702;7.276;2022-11-04T13:16:35;98537.00;;;17.30
19948;BMP180;10135;50.702;7.276;2022-11-04T13:18:40;98549.00;;;17.20
19948;BMP180;10135;50.702;7.276;2022-11-04T13:21:04;98547.00;;;17.20
19948;BMP180;10135;50.702;7.276;2022-11-04T13:23:15;98554.00;;;17.20
19948;BMP180;10135;50.702;7.276;2022-11-04T13:25:39;98563.00;;;17.10
19948;BMP180;10135;50.702;7.276;2022-11-04T13:27:46;98568.00;;;17.10
19948;BMP180;10135;50.702;7.276;2022-11-04T13:29:50;98563.00;;;17.10
19948;BMP180;10135;50.702;7.276;2022-11-04T13:32:11;98563.00;;;17.00
19948;BMP180;10135;50.702;7.276;2022-11-04T13:34:57;98569.00;;;17.00
19948;BMP180;10135;50.702;7.276;2022-11-04T13:37:31;98567.00;;;17.00
19948;BMP180;10135;50.702;7.276;2022-11-04T13:40:11;98561.00;;;17.00
19948;BMP180;10135;50.702;7.276;2022-11-04T13:44:51;98574.00;;;16.90
19948;BMP180;10135;50.702;7.276;2022-11-04T13:46:58;98567.00;;;16.80
19948;BMP180;10135;50.702;7.276;2022-11-04T13:49:14;98576.00;;;16.80
19948;BMP180;10135;50.702;7.276;2022-11-04T13:51:18;98582.00;;;16.80
19948;BMP180;10135;50.702;7.276;2022-11-04T13:53:19;98582.00;;;16.80
19948;BMP180;10135;50.702;7.276;2022-11-04T13:55:20;98585.00;;;16.80
19948;BMP180;10135;50.702;7.276;2022-11-04T13:57:25;98581.00;;;16.70
19948;BMP180;10135;50.702;7.276;2022-11-04T13:59:29;98592.00;;;16.70
19948;BMP180;10135;50.702;7.276;2022-11-04T14:01:33;98583.00;;;16.70
19948;BMP180;10135;50.702;7.276;2022-11-04T14:10:01;98593.00;;;16.70
19948;BMP180;10135;50.702;7.276;2022-11-04T14:14:18;98604.00;;;16.80
19948;BMP180;10135;50.702;7.276;2022-11-04T14:18:44;98600.00;;;16.80
19948;BMP180;10135;50.702;7.276;2022-11-04T14:21:12;98607.00;;;16.80
19948;BMP180;10135;50.702;7.276;2022-11-04T14:23:22;98607.00;;;16.80
19948;BMP180;10135;50.702;7.276;2022-11-04T14:25:32;98612.00;;;16.80
19948;BMP180;10135;50.702;7.276;2022-11-04T14:27:40;98617.00;;;16.80
19948;BMP180;10135;50.702;7.276;2022-11-04T14:29:49;98621.00;;;16.80
19948;BMP180;10135;50.702;7.276;2022-11-04T14:31:57;98624.00;;;16.80
19948;BMP180;10135;50.702;7.276;2022-11-04T14:33:58;98628.00;;;16.80
19948;BMP180;10135;50.702;7.276;2022-11-04T14:38:29;98639.00;;;16.80
19948;BMP180;10135;50.702;7.276;2022-11-04T14:40:50;98642.00;;;16.80
19948;BMP180;10135;50.702;7.276;2022-11-04T14:42:56;98647.00;;;16.80
19948;BMP180;10135;50.702;7.276;2022-11-04T14:44:58;98647.00;;;16.80
19948;BMP180;10135;50.702;7.276;2022-11-04T14:47:27;98644.00;;;16.70
19948;BMP180;10135;50.702;7.276;2022-11-04T14:49:39;98655.00;;;16.70
19948;BMP180;10135;50.702;7.276;2022-11-04T14:51:41;98658.00;;;16.80
19948;BMP180;10135;50.702;7.276;2022-11-04T14:53:42;98661.00;;;16.80
19948;BMP180;10135;50.702;7.276;2022-11-04T14:55:43;98666.00;;;16.70
19948;BMP180;10135;50.702;7.276;2022-11-04T14:57:47;98669.00;;;16.70
19948;BMP180;10135;50.702;7.276;2022-11-04T14:59:48;98676.00;;;16.70
19948;BMP180;10135;50.702;7.276;2022-11-04T15:01:53;98675.00;;;16.70
19948;BMP180;10135;50.702;7.276;2022-11-04T15:04:04;98683.00;;;16.60
19948;BMP180;10135;50.702;7.276;2022-11-04T15:06:08;98688.00;;;16.60
19948;BMP180;10135;50.702;7.276;2022-11-04T15:10:41;98694.00;;;16.60
19948;BMP180;10135;50.702;7.276;2022-11-04T15:12:44;98696.00;;;16.60
19948;BMP180;10135;50.702;7.276;2022-11-04T15:14:51;98699.00;;;16.60
19948;BMP180;10135;50.702;7.276;2022-11-04T15:16:57;98706.00;;;16.50
19948;BMP180;10135;50.702;7.276;2022-11-04T15:19:01;98701.00;;;16.50
19948;BMP180;10135;50.702;7.276;2022-11-04T15:21:04;98700.00;;;16.50
19948;BMP180;10135;50.702;7.276;2022-11-04T15:23:13;98715.00;;;16.40
19948;BMP180;10135;50.702;7.276;2022-11-04T15:25:14;98717.00;;;16.50
19948;BMP180;10135;50.702;7.276;2022-11-04T15:27:18;98729.00;;;16.40
19948;BMP180;10135;50.702;7.276;2022-11-04T15:29:22;98725.00;;;16.40
19948;BMP180;10135;50.702;7.276;2022-11-04T15:31:27;98729.00;;;16.30
19948;BMP180;10135;50.702;7.276;2022-11-04T15:33:29;98733.00;;;16.30
19948;BMP180;10135;50.702;7.276;2022-11-04T15:35:32;98730.00;;;16.30
19948;BMP180;10135;50.702;7.276;2022-11-04T15:37:35;98730.00;;;16.30
19948;BMP180;10135;50.702;7.276;2022-11-04T15:39:44;98732.00;;;16.20
19948;BMP180;10135;50.702;7.276;2022-11-04T15:41:46;98742.00;;;16.20
19948;BMP180;10135;50.702;7.276;2022-11-04T15:44:30;98739.00;;;16.10
19948;BMP180;10135;50.702;7.276;2022-11-04T15:46:31;98747.00;;;16.10
19948;BMP180;10135;50.702;7.276;2022-11-04T15:48:33;98746.00;;;16.10
19948;BMP180;10135;50.702;7.276;2022-11-04T15:50:37;98753.00;;;16.10
19948;BMP180;10135;50.702;7.276;2022-11-04T15:52:49;98754.00;;;16.00
19948;BMP180;10135;50.702;7.276;2022-11-04T15:54:57;98755.00;;;16.00
19948;BMP180;10135;50.702;7.276;2022-11-04T15:57:03;98756.00;;;16.00
19948;BMP180;10135;50.702;7.276;2022-11-04T15:59:13;98761.00;;;16.00
19948;BMP180;10135;50.702;7.276;2022-11-04T16:01:16;98759.00;;;16.00
19948;BMP180;10135;50.702;7.276;2022-11-04T16:03:20;98755.00;;;16.00
19948;BMP180;10135;50.702;7.276;2022-11-04T16:05:28;98754.00;;;15.90
19948;BMP180;10135;50.702;7.276;2022-11-04T16:07:43;98763.00;;;15.90
19948;BMP180;10135;50.702;7.276;2022-11-04T16:09:50;98763.00;;;15.90
19948;BMP180;10135;50.702;7.276;2022-11-04T16:12:13;98766.00;;;15.80
19948;BMP180;10135;50.702;7.276;2022-11-04T16:14:24;98764.00;;;15.80
19948;BMP180;10135;50.702;7.276;2022-11-04T16:16:26;98771.00;;;15.90
19948;BMP180;10135;50.702;7.276;2022-11-04T16:18:54;98780.00;;;15.80
19948;BMP180;10135;50.702;7.276;2022-11-04T16:20:58;98780.00;;;15.80
19948;BMP180;10135;50.702;7.276;2022-11-04T16:23:02;98784.00;;;15.80
19948;BMP180;10135;50.702;7.276;2022-11-04T16:25:06;98785.00;;;15.80
19948;BMP180;10135;50.702;7.276;2022-11-04T16:27:16;98794.00;;;15.80
19948;BMP180;10135;50.702;7.276;2022-11-04T16:29:25;98801.00;;;15.80
19948;BMP180;10135;50.702;7.276;2022-11-04T16:31:33;98807.00;;;15.80
19948;BMP180;10135;50.702;7.276;2022-11-04T16:33:34;98816.00;;;15.80
19948;BMP180;10135;50.702;7.276;2022-11-04T16:35:35;98814.00;;;15.80
19948;BMP180;10135;50.702;7.276;2022-11-04T16:37:42;98815.00;;;15.70
19948;BMP180;10135;50.702;7.276;2022-11-04T16:39:44;98824.00;;;15.70
19948;BMP180;10135;50.702;7.276;2022-11-04T16:41:44;98828.00;;;15.70
19948;BMP180;10135;50.702;7.276;2022-11-04T16:43:47;98826.00;;;15.60
19948;BMP180;10135;50.702;7.276;2022-11-04T16:45:49;98836.00;;;15.60
19948;BMP180;10135;50.702;7.276;2022-11-04T16:47:51;98834.00;;;15.50
19948;BMP180;10135;50.702;7.276;2022-11-04T16:49:52;98842.00;;;15.50
19948;BMP180;10135;50.702;7.276;2022-11-04T16:51:59;98840.00;;;15.40
19948;BMP180;10135;50.702;7.276;2022-11-04T16:54:00;98844.00;;;15.40
19948;BMP180;10135;50.702;7.276;2022-11-04T16:56:01;98850.00;;;15.40
19948;BMP180;10135;50.702;7.276;2022-11-04T16:58:03;98840.00;;;15.40
19948;BMP180;10135;50.702;7.276;2022-11-04T17:00:05;98852.00;;;15.30
19948;BMP180;10135;50.702;7.276;2022-11-04T17:02:25;98851.00;;;15.30
19948;BMP180;10135;50.702;7.276;2022-11-04T17:04:27;98849.00;;;15.30
19948;BMP180;10135;50.702;7.276;2022-11-04T17:06:28;98849.00;;;15.20
19948;BMP180;10135;50.702;7.276;2022-11-04T17:08:29;98851.00;;;15.20
19948;BMP180;10135;50.702;7.276;2022-11-04T17:10:34;98850.00;;;15.20
19948;BMP180;10135;50.702;7.276;2022-11-04T17:12:35;98856.00;;;15.20
19948;BMP180;10135;50.702;7.276;2022-11-04T17:14:37;98855.00;;;15.10
19948;BMP180;10135;50.702;7.276;2022-11-04T17:16:38;98854.00;;;15.10
19948;BMP180;10135;50.702;7.276;2022-11-04T17:18:38;98863.00;;;15.10
19948;BMP180;10135;50.702;7.276;2022-11-04T17:20:46;98866.00;;;15.00
19948;BMP180;10135;50.702;7.276;2022-11-04T17:22:48;98863.00;;;15.00
19948;BMP180;10135;50.702;7.276;2022-11-04T17:24:49;98873.00;;;15.00
19948;BMP180;10135;50.702;7.276;2022-11-04T17:26:50;98871.00;;;15.00
19948;BMP180;10135;50.702;7.276;2022-11-04T17:28:50;98871.00;;;15.00
19948;BMP180;10135;50.702;7.276;2022-11-04T17:30:51;98867.00;;;15.00
19948;BMP180;10135;50.702;7.276;2022-11-04T17:32:52;98871.00;;;15.00
19948;BMP180;10135;50.702;7.276;2022-11-04T17:34:52;98875.00;;;15.00
19948;BMP180;10135;50.702;7.276;2022-11-04T17:36:53;98878.00;;;15.00
19948;BMP180;10135;50.702;7.276;2022-11-04T17:38:54;98881.00;;;15.00
19948;BMP180;10135;50.702;7.276;2022-11-04T17:40:55;98884.00;;;15.00
19948;BMP180;10135;50.702;7.276;2022-11-04T17:43:14;98889.00;;;15.00
19948;BMP180;10135;50.702;7.276;2022-11-04T17:45:33;98894.00;;;14.90
19948;BMP180;10135;50.702;7.276;2022-11-04T17:47:36;98893.00;;;14.90
19948;BMP180;10135;50.702;7.276;2022-11-04T17:49:37;98895.00;;;14.90
19948;BMP180;10135;50.702;7.276;2022-11-04T17:51:41;98895.00;;;14.90
19948;BMP180;10135;50.702;7.276;2022-11-04T17:53:42;98901.00;;;14.90
19948;BMP180;10135;50.702;7.276;2022-11-04T17:55:42;98904.00;;;14.90
19948;BMP180;10135;50.702;7.276;2022-11-04T17:57:43;98907.00;;;14.90
19948;BMP180;10135;50.702;7.276;2022-11-04T17:59:44;98907.00;;;14.90
19948;BMP180;10135;50.702;7.276;2022-11-04T18:01:45;98910.00;;;14.90
19948;BMP180;10135;50.702;7.276;2022-11-04T18:03:46;98913.00;;;14.90
19948;BMP180;10135;50.702;7.276;2022-11-04T18:05:46;98916.00;;;14.90
19948;BMP180;10135;50.702;7.276;2022-11-04T18:07:47;98921.00;;;14.90
19948;BMP180;10135;50.702;7.276;2022-11-04T18:09:48;98919.00;;;14.90
19948;BMP180;10135;50.702;7.276;2022-11-04T18:11:49;98926.00;;;14.90
19948;BMP180;10135;50.702;7.276;2022-11-04T18:14:09;98927.00;;;14.90
19948;BMP180;10135;50.702;7.276;2022-11-04T18:16:12;98928.00;;;14.90
19948;BMP180;10135;50.702;7.276;2022-11-04T18:18:13;98939.00;;;14.90
19948;BMP180;10135;50.702;7.276;2022-11-04T18:20:14;98943.00;;;14.80
19948;BMP180;10135;50.702;7.276;2022-11-04T18:22:15;98941.00;;;14.80
19948;BMP180;10135;50.702;7.276;2022-11-04T18:24:16;98935.00;;;14.80
19948;BMP180;10135;50.702;7.276;2022-11-04T18:26:17;98941.00;;;14.80
19948;BMP180;10135;50.702;7.276;2022-11-04T18:28:18;98932.00;;;14.80
19948;BMP180;10135;50.702;7.276;2022-11-04T18:30:19;98937.00;;;14.80
19948;BMP180;10135;50.702;7.276;2022-11-04T18:32:19;98952.00;;;14.80
19948;BMP180;10135;50.702;7.276;2022-11-04T18:34:20;98948.00;;;14.80
19948;BMP180;10135;50.702;7.276;2022-11-04T18:36:21;98952.00;;;14.80
19948;BMP180;10135;50.702;7.276;2022-11-04T18:38:21;98954.00;;;14.80
19948;BMP180;10135;50.702;7.276;2022-11-04T18:40:22;98952.00;;;14.80
19948;BMP180;10135;50.702;7.276;2022-11-04T18:42:25;98953.00;;;14.80
19948;BMP180;10135;50.702;7.276;2022-11-04T18:44:25;98952.00;;;14.80
19948;BMP180;10135;50.702;7.276;2022-11-04T18:46:26;98953.00;;;14.80
19948;BMP180;10135;50.702;7.276;2022-11-04T18:48:27;98960.00;;;14.80
19948;BMP180;10135;50.702;7.276;2022-11-04T18:50:27;98957.00;;;14.80
19948;BMP180;10135;50.702;7.276;2022-11-04T18:52:29;98953.00;;;14.80
19948;BMP180;10135;50.702;7.276;2022-11-04T18:54:30;98956.00;;;14.80
19948;BMP180;10135;50.702;7.276;2022-11-04T18:56:30;98958.00;;;14.80
19948;BMP180;10135;50.702;7.276;2022-11-04T18:58:33;98955.00;;;14.70
19948;BMP180;10135;50.702;7.276;2022-11-04T19:00:35;98954.00;;;14.70
19948;BMP180;10135;50.702;7.276;2022-11-04T19:02:39;98960.00;;;14.70
19948;BMP180;10135;50.702;7.276;2022-11-04T19:04:39;98966.00;;;14.70
19948;BMP180;10135;50.702;7.276;2022-11-04T19:06:43;98968.00;;;14.70
19948;BMP180;10135;50.702;7.276;2022-11-04T19:08:45;98966.00;;;14.70
19948;BMP180;10135;50.702;7.276;2022-11-04T19:10:45;98973.00;;;14.70
19948;BMP180;10135;50.702;7.276;2022-11-04T19:12:46;98967.00;;;14.70
19948;BMP180;10135;50.702;7.276;2022-11-04T19:15:06;98968.00;;;14.70
19948;BMP180;10135;50.702;7.276;2022-11-04T19:17:07;98976.00;;;14.70
19948;BMP180;10135;50.702;7.276;2022-11-04T19:19:12;98976.00;;;14.60
19948;BMP180;10135;50.702;7.276;2022-11-04T19:21:13;98983.00;;;14.60
19948;BMP180;10135;50.702;7.276;2022-11-04T19:23:14;98980.00;;;14.60
19948;BMP180;10135;50.702;7.276;2022-11-04T19:25:15;98990.00;;;14.60
19948;BMP180;10135;50.702;7.276;2022-11-04T19:27:16;98991.00;;;14.60
19948;BMP180;10135;50.702;7.276;2022-11-04T19:29:18;99000.00;;;14.60
19948;BMP180;10135;50.702;7.276;2022-11-04T19:31:24;98998.00;;;14.60
19948;BMP180;10135;50.702;7.276;2022-11-04T19:33:25;98994.00;;;14.60
19948;BMP180;10135;50.702;7.276;2022-11-04T19:35:27;99005.00;;;14.60
19948;BMP180;10135;50.702;7.276;2022-11-04T19:37:28;99004.00;;;14.60
19948;BMP180;10135;50.702;7.276;2022-11-04T19:39:28;99008.00;;;14.60
19948;BMP180;10135;50.702;7.276;2022-11-04T19:41:29;99018.00;;;14.60
19948;BMP180;10135;50.702;7.276;2022-11-04T19:43:48;99023.00;;;14.60
19948;BMP180;10135;50.702;7.276;2022-11-04T19:45:49;99020.00;;;14.60
19948;BMP180;10135;50.702;7.276;2022-11-04T19:47:50;99035.00;;;14.50
19948;BMP180;10135;50.702;7.276;2022-11-04T19:49:51;99027.00;;;14.50
19948;BMP180;10135;50.702;7.276;2022-11-04T19:51:51;99029.00;;;14.50
19948;BMP180;10135;50.702;7.276;2022-11-04T19:53:52;99029.00;;;14.50
19948;BMP180;10135;50.702;7.276;2022-11-04T19:55:54;99027.00;;;14.50
19948;BMP180;10135;50.702;7.276;2022-11-04T19:57:55;99030.00;;;14.50
19948;BMP180;10135;50.702;7.276;2022-11-04T19:59:55;99030.00;;;14.50
19948;BMP180;10135;50.702;7.276;2022-11-04T20:01:56;99034.00;;;14.50
19948;BMP180;10135;50.702;7.276;2022-11-04T20:03:57;99033.00;;;14.50
19948;BMP180;10135;50.702;7.276;2022-11-04T20:05:58;99035.00;;;14.50
19948;BMP180;10135;50.702;7.276;2022-11-04T20:07:58;99036.00;;;14.50
19948;BMP180;10135;50.702;7.276;2022-11-04T20:09:59;99035.00;;;14.50
19948;BMP180;10135;50.702;7.276;2022-11-04T20:12:00;99044.00;;;14.50
19948;BMP180;10135;50.702;7.276;2022-11-04T20:14:20;99049.00;;;14.50
19948;BMP180;10135;50.702;7.276;2022-11-04T20:16:29;99051.00;;;14.50
19948;BMP180;10135;50.702;7.276;2022-11-04T20:18:30;99058.00;;;14.50
19948;BMP180;10135;50.702;7.276;2022-11-04T20:20:31;99055.00;;;14.50
19948;BMP180;10135;50.702;7.276;2022-11-04T20:22:31;99059.00;;;14.50
19948;BMP180;10135;50.702;7.276;2022-11-04T20:24:32;99063.00;;;14.50
19948;BMP180;10135;50.702;7.276;2022-11-04T20:26:36;99070.00;;;14.50
19948;BMP180;10135;50.702;7.276;2022-11-04T20:28:38;99072.00;;;14.50
19948;BMP180;10135;50.702;7.276;2022-11-04T20:30:39;99071.00;;;14.50
19948;BMP180;10135;50.702;7.276;2022-11-04T20:32:40;99081.00;;;14.50
19948;BMP180;10135;50.702;7.276;2022-11-04T20:34:41;99082.00;;;14.60
19948;BMP180;10135;50.702;7.276;2022-11-04T20:36:42;99085.00;;;14.60
19948;BMP180;10135;50.702;7.276;2022-11-04T20:38:43;99082.00;;;14.60
19948;BMP180;10135;50.702;7.276;2022-11-04T20:40:46;99087.00;;;14.50
19948;BMP180;10135;50.702;7.276;2022-11-04T20:42:47;99079.00;;;14.50
19948;BMP180;10135;50.702;7.276;2022-11-04T20:44:48;99080.00;;;14.50
19948;BMP180;10135;50.702;7.276;2022-11-04T20:46:50;99081.00;;;14.50
19948;BMP180;10135;50.702;7.276;2022-11-04T20:48:51;99083.00;;;14.50
19948;BMP180;10135;50.702;7.276;2022-11-04T20:50:52;99101.00;;;14.50
19948;BMP180;10135;50.702;7.276;2022-11-04T20:52:52;99104.00;;;14.50
19948;BMP180;10135;50.702;7.276;2022-11-04T20:54:53;99114.00;;;14.50
19948;BMP180;10135;50.702;7.276;2022-11-04T20:56:54;99112.00;;;14.50
19948;BMP180;10135;50.702;7.276;2022-11-04T20:58:55;99127.00;;;14.50
19948;BMP180;10135;50.702;7.276;2022-11-04T21:01:11;99130.00;;;14.50
19948;BMP180;10135;50.702;7.276;2022-11-04T21:03:12;99130.00;;;14.60
19948;BMP180;10135;50.702;7.276;2022-11-04T21:05:13;99135.00;;;14.60
19948;BMP180;10135;50.702;7.276;2022-11-04T21:07:14;99133.00;;;14.60
19948;BMP180;10135;50.702;7.276;2022-11-04T21:09:19;99129.00;;;14.60
19948;BMP180;10135;50.702;7.276;2022-11-04T21:11:20;99127.00;;;14.60
19948;BMP180;10135;50.702;7.276;2022-11-04T21:13:21;99131.00;;;14.60
19948;BMP180;10135;50.702;7.276;2022-11-04T21:15:22;99141.00;;;14.70
19948;BMP180;10135;50.702;7.276;2022-11-04T21:17:41;99134.00;;;14.70
19948;BMP180;10135;50.702;7.276;2022-11-04T21:19:41;99137.00;;;14.70
19948;BMP180;10135;50.702;7.276;2022-11-04T21:21:43;99139.00;;;14.70
19948;BMP180;10135;50.702;7.276;2022-11-04T21:23:45;99145.00;;;14.70
19948;BMP180;10135;50.702;7.276;2022-11-04T21:25:57;99151.00;;;14.70
19948;BMP180;10135;50.702;7.276;2022-11-04T21:27:58;99154.00;;;14.70